createdAt,value
2018-11-21T07:58:05.537Z,17.40
2018-11-21T08:00:55.388Z,5.10
2018-11-21T08:03:25.797Z,1.50
2018-11-21T08:06:00.396Z,2.30
2018-11-21T08:08:34.753Z,2.30
2018-11-21T08:11:26.059Z,0.90
2018-11-21T08:14:14.253Z,0.50
2018-11-21T08:17:02.527Z,0.60
2018-11-21T08:20:05.753Z,0.50
2018-11-21T08:23:09.028Z,1.00
2018-11-21T08:25:56.181Z,0.60
2018-11-21T08:28:31.911Z,0.50
2018-11-21T08:31:01.103Z,1.60
2018-11-21T08:33:33.982Z,2.70
2018-11-21T08:36:00.523Z,1.50
2018-11-21T08:38:29.560Z,1.60
2018-11-21T08:40:58.648Z,0.70
2018-11-21T08:43:27.669Z,2.00
2018-11-21T08:45:56.795Z,1.20
2018-11-21T08:48:25.957Z,0.90
2018-11-21T08:50:55.028Z,1.00
2018-11-21T08:53:24.073Z,2.60
2018-11-21T08:55:53.238Z,1.20
2018-11-21T08:58:22.315Z,1.20
2018-11-21T09:00:51.374Z,1.00
2018-11-21T09:03:20.428Z,1.10
2018-11-21T09:05:49.469Z,1.50
2018-11-21T09:08:18.498Z,1.70
2018-11-21T09:10:47.554Z,1.80
2018-11-21T09:13:16.615Z,1.30
2018-11-21T09:15:45.800Z,1.40
2018-11-21T09:18:14.910Z,1.20
2018-11-21T09:20:43.996Z,3.10
2018-11-21T09:23:13.046Z,1.90
2018-11-21T09:25:42.081Z,1.50
2018-11-21T09:28:11.152Z,1.40
2018-11-21T09:30:40.194Z,9.10
2018-11-21T09:33:09.254Z,8.60
2018-11-21T09:35:38.348Z,6.00
2018-11-21T09:38:07.380Z,5.20
2018-11-21T09:40:36.538Z,2.90
2018-11-21T09:43:05.914Z,2.60
2018-11-21T09:45:34.965Z,6.20
2018-11-21T09:48:04.036Z,6.70
2018-11-21T09:50:33.784Z,5.20
2018-11-21T09:53:02.842Z,3.70
2018-11-21T09:55:31.929Z,2.90
2018-11-21T09:58:00.990Z,4.40
2018-11-21T10:01:06.720Z,4.00
2018-11-21T10:03:37.050Z,2.70
2018-11-21T10:06:11.887Z,2.80
2018-11-21T10:09:00.124Z,2.70
2018-11-21T10:11:30.046Z,4.50
2018-11-21T10:13:59.373Z,2.70
2018-11-21T10:16:28.383Z,2.40
2018-11-21T10:18:58.595Z,2.30
2018-11-21T10:21:29.260Z,2.60
2018-11-21T10:23:58.282Z,2.40
2018-11-21T10:26:27.369Z,2.70
2018-11-21T10:28:56.560Z,2.50
2018-11-21T10:31:25.605Z,2.70
2018-11-21T10:33:54.602Z,2.80
2018-11-21T10:36:23.638Z,3.90
2018-11-21T10:38:52.718Z,4.00
2018-11-21T10:41:21.733Z,3.20
2018-11-21T10:43:50.919Z,2.90
2018-11-21T10:46:19.954Z,4.80
2018-11-21T10:48:49.077Z,4.70
2018-11-21T10:51:18.140Z,3.90
2018-11-21T10:53:47.277Z,3.00
